METAR AND TAF INFORMATION
METAR FOR UAUU
ADDS - METARS form results

(2118 UTC 26 March 2019)
Data provider http://aviationweather.gov/metar/data/
 
METAR text: UAUU 262100Z 25002MPS CAVOK M04/M05 Q1022 R33/120056 NOSIG RMK QFE751/1001
Conditions at: UAUU (KOSTANAY , KZ) observed 2100 UTC 26 March 2019
Temperature: -4.0°C (25°F)
Dewpoint: -5.0°C (23°F) [RH = 93%]
Pressure (altimeter): 30.18 inches Hg (1022.0 mb)
Winds: from the WSW (250 degrees) at 5 MPH (4 knots; 2.1 m/s)
Visibility: 6 or more miles (10+ km)
Ceiling: ceiling and visibility are OK
Clouds: unknown
Weather: no significant weather observed at this time

METAR text: UAUU 262030Z 27004MPS CAVOK M03/M03 Q1022 R33/120056 NOSIG RMK QFE751/1001
Conditions at: UAUU (KOSTANAY , KZ) observed 2030 UTC 26 March 2019
Temperature: -3.0°C (27°F)
Dewpoint: -3.0°C (27°F) [RH = 100%]
Pressure (altimeter): 30.18 inches Hg (1022.0 mb)
Winds: from the W (270 degrees) at 9 MPH (8 knots; 4.1 m/s)
Visibility: 6 or more miles (10+ km)
Ceiling: ceiling and visibility are OK
Clouds: unknown
Weather: no significant weather observed at this time

Forecast for: UAUU (KOSTANAY , KZ)
Text: TAF UAUU 262000Z 2621/2706 25005MPS 6000 SCT011
Forecast period: 2100 UTC 26 March 2019 to 0600 UTC 27 March 2019
Forecast type: FROM: standard forecast or significant change
Winds: from the WSW (250 degrees) at 12 MPH (10 knots; 5.1 m/s)
Visibility: 4 miles (6 km)
Ceiling: at least 12,000 feet AGL
Clouds: scattered clouds at 1100 feet AGL
Weather: no significant weather forecast for this period
Text: TEMPO 2621/2703 0400 FZFG VV002
Forecast period: 2100 UTC 26 March 2019 to 0300 UTC 27 March 2019
Forecast type: TEMPORARY: The following changes expected for less than half the time period
Visibility: 0.25 miles (0.40 km)
Ceiling: indefinite ceiling with vertical visibility of 200 feet AGL
Clouds: obscured sky
Weather: FZFG  (freezing fog)
Text: TEMPO 2703/2706 3100 BR
Forecast period: 0300 to 0600 UTC 27 March 2019
Forecast type: TEMPORARY: The following changes expected for less than half the time period
Visibility: 1.93 miles (3.11 km)
Ceiling: unknown
Clouds: missing
Weather: BR  (mist)

 AIRPORT MAP

 RUNWAY INFORMATION

 AIRPORT FREQUENCIES
Type TWR Name TWR Frequency 129.3 MHZ

 AIRPORT NEAR NAVIGATION AIDS
Type NDB Name Kostanay Frequency 512 KHZ
Type NDB Name Kostanay Frequency 512 KHZ



2018 Air Astana Virtual Airline